sensor_id;sensor_type;location;lat;lon;timestamp;pressure;altitude;pressure_sealevel;temperature;humidity
47524;BME280;33253;42.144;25.884;2023-04-27T00:00:20;99861.19;;;10.95;100.00
47524;BME280;33253;42.144;25.884;2023-04-27T00:02:45;99869.56;;;10.86;100.00
47524;BME280;33253;42.144;25.884;2023-04-27T00:05:11;99867.66;;;10.79;100.00
47524;BME280;33253;42.144;25.884;2023-04-27T00:07:37;99846.34;;;10.54;100.00
47524;BME280;33253;42.144;25.884;2023-04-27T00:10:03;99857.78;;;10.62;100.00
47524;BME280;33253;42.144;25.884;2023-04-27T00:12:28;99875.38;;;10.45;100.00
47524;BME280;33253;42.144;25.884;2023-04-27T00:14:54;99878.50;;;10.35;100.00
47524;BME280;33253;42.144;25.884;2023-04-27T00:17:19;99883.44;;;10.27;100.00
47524;BME280;33253;42.144;25.884;2023-04-27T00:19:45;99884.31;;;10.28;100.00
47524;BME280;33253;42.144;25.884;2023-04-27T00:22:11;99884.25;;;10.25;100.00
47524;BME280;33253;42.144;25.884;2023-04-27T00:24:38;99893.06;;;10.33;100.00
47524;BME280;33253;42.144;25.884;2023-04-27T00:27:03;99816.03;;;9.84;100.00
47524;BME280;33253;42.144;25.884;2023-04-27T00:29:29;99890.22;;;10.24;100.00
47524;BME280;33253;42.144;25.884;2023-04-27T00:31:54;99881.28;;;10.12;100.00
47524;BME280;33253;42.144;25.884;2023-04-27T00:34:20;99902.16;;;10.20;100.00
47524;BME280;33253;42.144;25.884;2023-04-27T00:36:45;99891.28;;;10.01;100.00
47524;BME280;33253;42.144;25.884;2023-04-27T00:39:11;99907.47;;;9.96;100.00
47524;BME280;33253;42.144;25.884;2023-04-27T00:41:37;99904.22;;;10.03;100.00
47524;BME280;33253;42.144;25.884;2023-04-27T00:44:05;99894.47;;;9.93;100.00
47524;BME280;33253;42.144;25.884;2023-04-27T00:46:32;99919.56;;;9.98;100.00
47524;BME280;33253;42.144;25.884;2023-04-27T00:48:58;99882.34;;;9.61;100.00
47524;BME280;33253;42.144;25.884;2023-04-27T00:51:25;99927.59;;;9.80;100.00
47524;BME280;33253;42.144;25.884;2023-04-27T00:53:52;99930.38;;;9.86;100.00
47524;BME280;33253;42.144;25.884;2023-04-27T00:56:18;99929.72;;;9.65;100.00
47524;BME280;33253;42.144;25.884;2023-04-27T00:58:44;99936.22;;;9.53;100.00
47524;BME280;33253;42.144;25.884;2023-04-27T01:01:10;99821.50;;;8.84;100.00
47524;BME280;33253;42.144;25.884;2023-04-27T01:03:36;99948.09;;;9.48;100.00
47524;BME280;33253;42.144;25.884;2023-04-27T01:06:01;99958.44;;;9.50;100.00
47524;BME280;33253;42.144;25.884;2023-04-27T01:08:29;99965.72;;;9.36;100.00
47524;BME280;33253;42.144;25.884;2023-04-27T01:10:55;99971.88;;;9.41;100.00
47524;BME280;33253;42.144;25.884;2023-04-27T01:13:21;99964.41;;;9.23;100.00
47524;BME280;33253;42.144;25.884;2023-04-27T01:15:46;99976.47;;;9.24;100.00
47524;BME280;33253;42.144;25.884;2023-04-27T01:18:12;99944.66;;;8.98;100.00
47524;BME280;33253;42.144;25.884;2023-04-27T01:20:38;99974.19;;;9.07;100.00
47524;BME280;33253;42.144;25.884;2023-04-27T01:23:03;99944.94;;;8.81;100.00
47524;BME280;33253;42.144;25.884;2023-04-27T01:25:29;99988.44;;;8.98;100.00
47524;BME280;33253;42.144;25.884;2023-04-27T01:27:55;99966.34;;;8.80;100.00
47524;BME280;33253;42.144;25.884;2023-04-27T01:30:21;100003.09;;;9.00;100.00
47524;BME280;33253;42.144;25.884;2023-04-27T01:32:47;100016.16;;;9.05;100.00
47524;BME280;33253;42.144;25.884;2023-04-27T01:35:14;100020.03;;;8.94;100.00
47524;BME280;33253;42.144;25.884;2023-04-27T01:37:40;99975.16;;;8.63;100.00
47524;BME280;33253;42.144;25.884;2023-04-27T01:40:07;99972.41;;;8.58;100.00
47524;BME280;33253;42.144;25.884;2023-04-27T01:42:33;100027.19;;;8.78;100.00
47524;BME280;33253;42.144;25.884;2023-04-27T01:44:58;100023.94;;;8.82;100.00
47524;BME280;33253;42.144;25.884;2023-04-27T01:47:25;100030.81;;;8.83;100.00
47524;BME280;33253;42.144;25.884;2023-04-27T01:49:52;100034.22;;;8.82;100.00
47524;BME280;33253;42.144;25.884;2023-04-27T01:52:17;100035.63;;;8.74;100.00
47524;BME280;33253;42.144;25.884;2023-04-27T01:54:43;100044.13;;;8.71;100.00
47524;BME280;33253;42.144;25.884;2023-04-27T01:57:08;100038.06;;;8.71;100.00
47524;BME280;33253;42.144;25.884;2023-04-27T01:59:34;100037.75;;;8.62;100.00
47524;BME280;33253;42.144;25.884;2023-04-27T02:01:59;100042.94;;;8.63;100.00
47524;BME280;33253;42.144;25.884;2023-04-27T02:04:24;100036.69;;;8.56;100.00
47524;BME280;33253;42.144;25.884;2023-04-27T02:06:50;100050.66;;;8.63;100.00
47524;BME280;33253;42.144;25.884;2023-04-27T02:09:15;100045.28;;;8.57;100.00
47524;BME280;33253;42.144;25.884;2023-04-27T02:11:41;100051.41;;;8.61;100.00
47524;BME280;33253;42.144;25.884;2023-04-27T02:14:06;100050.50;;;8.58;100.00
47524;BME280;33253;42.144;25.884;2023-04-27T02:16:32;100058.56;;;8.68;100.00
47524;BME280;33253;42.144;25.884;2023-04-27T02:18:57;100055.97;;;8.68;100.00
47524;BME280;33253;42.144;25.884;2023-04-27T02:21:23;100061.84;;;8.64;100.00
47524;BME280;33253;42.144;25.884;2023-04-27T02:23:49;100061.00;;;8.65;100.00
47524;BME280;33253;42.144;25.884;2023-04-27T02:26:18;100053.56;;;8.50;100.00
47524;BME280;33253;42.144;25.884;2023-04-27T02:28:45;100070.31;;;8.61;100.00
47524;BME280;33253;42.144;25.884;2023-04-27T02:31:12;100071.94;;;8.59;100.00
47524;BME280;33253;42.144;25.884;2023-04-27T02:33:38;100025.19;;;8.25;100.00
47524;BME280;33253;42.144;25.884;2023-04-27T02:36:03;100086.53;;;8.58;100.00
47524;BME280;33253;42.144;25.884;2023-04-27T02:38:29;100088.16;;;8.56;100.00
47524;BME280;33253;42.144;25.884;2023-04-27T02:40:55;100082.75;;;8.50;100.00
47524;BME280;33253;42.144;25.884;2023-04-27T02:43:21;100092.53;;;8.59;100.00
47524;BME280;33253;42.144;25.884;2023-04-27T02:45:46;100079.91;;;8.44;100.00
47524;BME280;33253;42.144;25.884;2023-04-27T02:48:12;100090.66;;;8.55;100.00
47524;BME280;33253;42.144;25.884;2023-04-27T02:50:41;100098.44;;;8.56;100.00
47524;BME280;33253;42.144;25.884;2023-04-27T02:53:07;100102.78;;;8.57;100.00
47524;BME280;33253;42.144;25.884;2023-04-27T02:55:33;100115.94;;;8.65;100.00
47524;BME280;33253;42.144;25.884;2023-04-27T02:57:58;100118.56;;;8.67;100.00
47524;BME280;33253;42.144;25.884;2023-04-27T03:00:24;100116.44;;;8.56;100.00
47524;BME280;33253;42.144;25.884;2023-04-27T03:02:50;100112.31;;;8.60;100.00
47524;BME280;33253;42.144;25.884;2023-04-27T03:05:16;100113.84;;;8.55;100.00
47524;BME280;33253;42.144;25.884;2023-04-27T03:07:41;100120.03;;;8.60;100.00
47524;BME280;33253;42.144;25.884;2023-04-27T03:10:07;100074.72;;;8.42;100.00
47524;BME280;33253;42.144;25.884;2023-04-27T03:12:33;100124.22;;;8.58;100.00
47524;BME280;33253;42.144;25.884;2023-04-27T03:15:00;100133.00;;;8.63;100.00
47524;BME280;33253;42.144;25.884;2023-04-27T03:17:26;100138.38;;;8.69;100.00
47524;BME280;33253;42.144;25.884;2023-04-27T03:19:51;100129.00;;;8.70;100.00
47524;BME280;33253;42.144;25.884;2023-04-27T03:22:17;100144.97;;;8.84;100.00
47524;BME280;33253;42.144;25.884;2023-04-27T03:24:42;100127.19;;;8.90;100.00
47524;BME280;33253;42.144;25.884;2023-04-27T03:27:08;100147.47;;;8.82;100.00
47524;BME280;33253;42.144;25.884;2023-04-27T03:29:33;100150.97;;;8.84;100.00
47524;BME280;33253;42.144;25.884;2023-04-27T03:31:59;100152.69;;;8.84;100.00
47524;BME280;33253;42.144;25.884;2023-04-27T03:34:25;100153.56;;;8.84;100.00
47524;BME280;33253;42.144;25.884;2023-04-27T03:36:50;100161.88;;;9.00;100.00
47524;BME280;33253;42.144;25.884;2023-04-27T03:39:17;100125.41;;;8.89;100.00
47524;BME280;33253;42.144;25.884;2023-04-27T03:41:42;100167.59;;;9.15;100.00
47524;BME280;33253;42.144;25.884;2023-04-27T03:44:07;100170.47;;;9.23;100.00
47524;BME280;33253;42.144;25.884;2023-04-27T03:46:33;100181.81;;;9.28;100.00
47524;BME280;33253;42.144;25.884;2023-04-27T03:48:59;100183.69;;;9.32;100.00
47524;BME280;33253;42.144;25.884;2023-04-27T03:51:24;100185.69;;;9.39;100.00
47524;BME280;33253;42.144;25.884;2023-04-27T03:53:51;100136.94;;;9.21;100.00
47524;BME280;33253;42.144;25.884;2023-04-27T03:56:16;100187.00;;;9.52;100.00
47524;BME280;33253;42.144;25.884;2023-04-27T03:58:41;100183.53;;;9.52;100.00
47524;BME280;33253;42.144;25.884;2023-04-27T04:01:07;100156.13;;;9.30;100.00
47524;BME280;33253;42.144;25.884;2023-04-27T04:03:34;100205.03;;;9.52;100.00
47524;BME280;33253;42.144;25.884;2023-04-27T04:06:00;100201.44;;;9.47;100.00
47524;BME280;33253;42.144;25.884;2023-04-27T04:08:28;100201.53;;;9.50;100.00
47524;BME280;33253;42.144;25.884;2023-04-27T04:10:53;100205.88;;;9.51;100.00
47524;BME280;33253;42.144;25.884;2023-04-27T04:13:20;100210.38;;;9.57;100.00
47524;BME280;33253;42.144;25.884;2023-04-27T04:15:45;100216.44;;;9.59;100.00
47524;BME280;33253;42.144;25.884;2023-04-27T04:18:12;100187.91;;;9.30;100.00
47524;BME280;33253;42.144;25.884;2023-04-27T04:20:37;100219.91;;;9.37;100.00
47524;BME280;33253;42.144;25.884;2023-04-27T04:23:03;100168.75;;;9.01;100.00
47524;BME280;33253;42.144;25.884;2023-04-27T04:25:28;100221.94;;;9.21;100.00
47524;BME280;33253;42.144;25.884;2023-04-27T04:27:53;100227.59;;;9.13;100.00
47524;BME280;33253;42.144;25.884;2023-04-27T04:30:19;100176.47;;;8.78;100.00
47524;BME280;33253;42.144;25.884;2023-04-27T04:32:44;100236.78;;;9.06;100.00
47524;BME280;33253;42.144;25.884;2023-04-27T04:35:10;100231.44;;;9.01;100.00
47524;BME280;33253;42.144;25.884;2023-04-27T04:37:36;100243.31;;;8.98;100.00
47524;BME280;33253;42.144;25.884;2023-04-27T04:40:05;100229.44;;;8.94;100.00
47524;BME280;33253;42.144;25.884;2023-04-27T04:42:37;100236.06;;;8.87;100.00
47524;BME280;33253;42.144;25.884;2023-04-27T04:45:03;100225.69;;;8.86;100.00
47524;BME280;33253;42.144;25.884;2023-04-27T04:47:29;100234.34;;;8.88;100.00
47524;BME280;33253;42.144;25.884;2023-04-27T04:49:58;100242.84;;;8.85;100.00
47524;BME280;33253;42.144;25.884;2023-04-27T04:52:24;100246.28;;;8.86;100.00
47524;BME280;33253;42.144;25.884;2023-04-27T04:54:52;100250.69;;;8.88;100.00
47524;BME280;33253;42.144;25.884;2023-04-27T04:57:18;100198.13;;;8.62;100.00
47524;BME280;33253;42.144;25.884;2023-04-27T04:59:43;100172.38;;;8.41;100.00
47524;BME280;33253;42.144;25.884;2023-04-27T05:02:08;100253.94;;;8.84;100.00
47524;BME280;33253;42.144;25.884;2023-04-27T05:04:34;100254.66;;;8.80;100.00
47524;BME280;33253;42.144;25.884;2023-04-27T05:06:59;100254.84;;;8.85;100.00
47524;BME280;33253;42.144;25.884;2023-04-27T05:09:25;100247.03;;;8.83;100.00
47524;BME280;33253;42.144;25.884;2023-04-27T05:11:50;100249.69;;;8.85;100.00
47524;BME280;33253;42.144;25.884;2023-04-27T05:14:16;100256.53;;;8.84;100.00
47524;BME280;33253;42.144;25.884;2023-04-27T05:16:41;100264.25;;;8.84;100.00
47524;BME280;33253;42.144;25.884;2023-04-27T05:19:07;100240.66;;;8.73;100.00
47524;BME280;33253;42.144;25.884;2023-04-27T05:21:33;100263.56;;;8.88;100.00
47524;BME280;33253;42.144;25.884;2023-04-27T05:23:59;100265.44;;;8.93;100.00
47524;BME280;33253;42.144;25.884;2023-04-27T05:26:24;100266.88;;;8.86;100.00
47524;BME280;33253;42.144;25.884;2023-04-27T05:28:50;100274.47;;;8.83;100.00
47524;BME280;33253;42.144;25.884;2023-04-27T05:31:15;100266.63;;;8.80;100.00
47524;BME280;33253;42.144;25.884;2023-04-27T05:33:41;100251.88;;;8.76;100.00
47524;BME280;33253;42.144;25.884;2023-04-27T05:36:06;100274.69;;;8.87;100.00
47524;BME280;33253;42.144;25.884;2023-04-27T05:38:32;100261.09;;;8.92;100.00
47524;BME280;33253;42.144;25.884;2023-04-27T05:41:00;100259.41;;;8.92;100.00
47524;BME280;33253;42.144;25.884;2023-04-27T05:43:26;100261.22;;;8.95;100.00
47524;BME280;33253;42.144;25.884;2023-04-27T05:45:52;100233.91;;;8.77;100.00
47524;BME280;33253;42.144;25.884;2023-04-27T05:48:18;100207.50;;;8.60;100.00
47524;BME280;33253;42.144;25.884;2023-04-27T05:50:43;100286.78;;;9.11;100.00
47524;BME280;33253;42.144;25.884;2023-04-27T05:53:08;100279.81;;;9.09;100.00
47524;BME280;33253;42.144;25.884;2023-04-27T05:55:34;100292.41;;;9.23;100.00
47524;BME280;33253;42.144;25.884;2023-04-27T05:58:00;100298.50;;;9.26;100.00
47524;BME280;33253;42.144;25.884;2023-04-27T06:00:26;100253.13;;;9.06;100.00
47524;BME280;33253;42.144;25.884;2023-04-27T06:02:52;100291.00;;;9.32;100.00
47524;BME280;33253;42.144;25.884;2023-04-27T06:05:17;100279.88;;;9.33;100.00
47524;BME280;33253;42.144;25.884;2023-04-27T06:07:43;100299.22;;;9.44;100.00
47524;BME280;33253;42.144;25.884;2023-04-27T06:10:09;100284.69;;;9.46;100.00
47524;BME280;33253;42.144;25.884;2023-04-27T06:12:36;100293.06;;;9.41;100.00
47524;BME280;33253;42.144;25.884;2023-04-27T06:15:01;100287.13;;;9.43;100.00
47524;BME280;33253;42.144;25.884;2023-04-27T06:17:36;100299.97;;;9.42;100.00
47524;BME280;33253;42.144;25.884;2023-04-27T06:20:03;100303.38;;;9.41;100.00
47524;BME280;33253;42.144;25.884;2023-04-27T06:22:32;100293.06;;;9.41;100.00
47524;BME280;33253;42.144;25.884;2023-04-27T06:24:57;100285.19;;;9.36;100.00
47524;BME280;33253;42.144;25.884;2023-04-27T06:27:23;100302.16;;;9.53;100.00
47524;BME280;33253;42.144;25.884;2023-04-27T06:29:48;100294.47;;;9.55;100.00
47524;BME280;33253;42.144;25.884;2023-04-27T06:32:13;100292.84;;;9.57;100.00
47524;BME280;33253;42.144;25.884;2023-04-27T06:34:39;100304.06;;;9.59;100.00
47524;BME280;33253;42.144;25.884;2023-04-27T06:37:05;100302.44;;;9.61;100.00
47524;BME280;33253;42.144;25.884;2023-04-27T06:39:31;100302.50;;;9.63;100.00
47524;BME280;33253;42.144;25.884;2023-04-27T06:41:56;100297.56;;;9.69;100.00
47524;BME280;33253;42.144;25.884;2023-04-27T06:44:22;100290.03;;;9.51;100.00
47524;BME280;33253;42.144;25.884;2023-04-27T06:46:48;100313.72;;;9.63;100.00
47524;BME280;33253;42.144;25.884;2023-04-27T06:49:13;100302.69;;;9.67;100.00
47524;BME280;33253;42.144;25.884;2023-04-27T06:51:39;100270.56;;;9.59;100.00
47524;BME280;33253;42.144;25.884;2023-04-27T06:54:04;100316.59;;;9.95;100.00
47524;BME280;33253;42.144;25.884;2023-04-27T06:56:30;100306.31;;;9.97;100.00
47524;BME280;33253;42.144;25.884;2023-04-27T06:58:55;100323.09;;;10.08;100.00
47524;BME280;33253;42.144;25.884;2023-04-27T07:01:21;100319.91;;;10.15;100.00
47524;BME280;33253;42.144;25.884;2023-04-27T07:03:46;100328.75;;;10.22;100.00
47524;BME280;33253;42.144;25.884;2023-04-27T07:06:12;100326.75;;;10.38;100.00
47524;BME280;33253;42.144;25.884;2023-04-27T07:08:37;100331.03;;;10.37;100.00
47524;BME280;33253;42.144;25.884;2023-04-27T07:11:03;100332.06;;;10.42;100.00
47524;BME280;33253;42.144;25.884;2023-04-27T07:13:29;100331.94;;;10.39;100.00
47524;BME280;33253;42.144;25.884;2023-04-27T07:15:55;100333.63;;;10.37;100.00
47524;BME280;33253;42.144;25.884;2023-04-27T07:18:23;100333.72;;;10.40;100.00
47524;BME280;33253;42.144;25.884;2023-04-27T07:20:48;100332.25;;;10.47;100.00
47524;BME280;33253;42.144;25.884;2023-04-27T07:23:14;100335.59;;;10.44;100.00
47524;BME280;33253;42.144;25.884;2023-04-27T07:25:40;100337.09;;;10.39;100.00
47524;BME280;33253;42.144;25.884;2023-04-27T07:28:06;100337.44;;;10.48;100.00
47524;BME280;33253;42.144;25.884;2023-04-27T07:30:31;100343.56;;;10.50;100.00
47524;BME280;33253;42.144;25.884;2023-04-27T07:33:00;100340.69;;;10.43;100.00
47524;BME280;33253;42.144;25.884;2023-04-27T07:35:25;100351.22;;;10.49;100.00
47524;BME280;33253;42.144;25.884;2023-04-27T07:37:51;100346.00;;;10.47;100.00
47524;BME280;33253;42.144;25.884;2023-04-27T07:40:16;100351.53;;;10.57;100.00
47524;BME280;33253;42.144;25.884;2023-04-27T07:42:42;100346.28;;;10.55;100.00
47524;BME280;33253;42.144;25.884;2023-04-27T07:45:09;100344.81;;;10.62;100.00
47524;BME280;33253;42.144;25.884;2023-04-27T07:47:34;100351.16;;;10.72;100.00
47524;BME280;33253;42.144;25.884;2023-04-27T07:50:00;100337.78;;;10.83;100.00
47524;BME280;33253;42.144;25.884;2023-04-27T07:52:25;100349.13;;;10.89;100.00
47524;BME280;33253;42.144;25.884;2023-04-27T07:54:51;100351.09;;;10.96;100.00
47524;BME280;33253;42.144;25.884;2023-04-27T07:57:16;100330.53;;;10.99;100.00
47524;BME280;33253;42.144;25.884;2023-04-27T07:59:42;100343.38;;;11.23;100.00
47524;BME280;33253;42.144;25.884;2023-04-27T08:02:07;100352.16;;;11.28;100.00
47524;BME280;33253;42.144;25.884;2023-04-27T08:04:33;100357.56;;;11.36;100.00
47524;BME280;33253;42.144;25.884;2023-04-27T08:06:59;100353.50;;;11.43;100.00
47524;BME280;33253;42.144;25.884;2023-04-27T08:09:24;100343.94;;;11.40;100.00
47524;BME280;33253;42.144;25.884;2023-04-27T08:11:50;100367.84;;;11.62;100.00
47524;BME280;33253;42.144;25.884;2023-04-27T08:14:16;100355.88;;;11.64;100.00
47524;BME280;33253;42.144;25.884;2023-04-27T08:16:42;100349.84;;;11.65;100.00
47524;BME280;33253;42.144;25.884;2023-04-27T08:19:08;100305.69;;;11.30;100.00
47524;BME280;33253;42.144;25.884;2023-04-27T08:21:35;100360.78;;;11.56;100.00
47524;BME280;33253;42.144;25.884;2023-04-27T08:24:01;100350.41;;;11.55;100.00
47524;BME280;33253;42.144;25.884;2023-04-27T08:26:27;100329.56;;;11.50;100.00
47524;BME280;33253;42.144;25.884;2023-04-27T08:28:52;100357.75;;;11.70;100.00
47524;BME280;33253;42.144;25.884;2023-04-27T08:31:18;100354.38;;;11.72;100.00
47524;BME280;33253;42.144;25.884;2023-04-27T08:33:43;100354.38;;;11.72;100.00
47524;BME280;33253;42.144;25.884;2023-04-27T08:36:09;100310.94;;;11.60;100.00
47524;BME280;33253;42.144;25.884;2023-04-27T08:38:34;100352.56;;;11.97;100.00
47524;BME280;33253;42.144;25.884;2023-04-27T08:41:00;100349.41;;;12.07;100.00
47524;BME280;33253;42.144;25.884;2023-04-27T08:43:25;100356.59;;;12.18;100.00
47524;BME280;33253;42.144;25.884;2023-04-27T08:45:51;100352.66;;;12.30;100.00
47524;BME280;33253;42.144;25.884;2023-04-27T08:48:17;100348.78;;;12.46;100.00
47524;BME280;33253;42.144;25.884;2023-04-27T08:50:44;100347.88;;;12.46;100.00
47524;BME280;33253;42.144;25.884;2023-04-27T08:53:20;100343.72;;;12.51;100.00
47524;BME280;33253;42.144;25.884;2023-04-27T08:55:47;100342.00;;;12.52;100.00
47524;BME280;33253;42.144;25.884;2023-04-27T08:58:12;100325.63;;;12.53;100.00
47524;BME280;33253;42.144;25.884;2023-04-27T09:00:39;100344.31;;;12.74;100.00
47524;BME280;33253;42.144;25.884;2023-04-27T09:03:06;100334.94;;;12.79;100.00
47524;BME280;33253;42.144;25.884;2023-04-27T09:05:32;100337.94;;;12.95;100.00
47524;BME280;33253;42.144;25.884;2023-04-27T09:08:02;100324.41;;;13.07;100.00
47524;BME280;33253;42.144;25.884;2023-04-27T09:10:41;100326.41;;;13.17;100.00
47524;BME280;33253;42.144;25.884;2023-04-27T09:13:07;100332.31;;;13.13;100.00
47524;BME280;33253;42.144;25.884;2023-04-27T09:15:48;100351.09;;;13.03;100.00
47524;BME280;33253;42.144;25.884;2023-04-27T09:18:21;100333.88;;;13.05;100.00
47524;BME280;33253;42.144;25.884;2023-04-27T09:20:49;100336.50;;;13.06;100.00
47524;BME280;33253;42.144;25.884;2023-04-27T09:23:31;100337.16;;;12.98;99.98
47524;BME280;33253;42.144;25.884;2023-04-27T09:25:59;100337.06;;;12.94;100.00
47524;BME280;33253;42.144;25.884;2023-04-27T09:28:25;100314.63;;;12.95;100.00
47524;BME280;33253;42.144;25.884;2023-04-27T09:30:57;100332.81;;;12.98;100.00
47524;BME280;33253;42.144;25.884;2023-04-27T09:33:23;100327.81;;;13.06;100.00
47524;BME280;33253;42.144;25.884;2023-04-27T09:35:49;100329.69;;;13.11;100.00
47524;BME280;33253;42.144;25.884;2023-04-27T09:38:19;100293.63;;;12.84;100.00
47524;BME280;33253;42.144;25.884;2023-04-27T09:40:45;100320.97;;;13.08;100.00
47524;BME280;33253;42.144;25.884;2023-04-27T09:43:11;100304.41;;;13.01;100.00
47524;BME280;33253;42.144;25.884;2023-04-27T09:45:37;100307.25;;;13.12;100.00
47524;BME280;33253;42.144;25.884;2023-04-27T09:48:04;100324.88;;;13.27;100.00
47524;BME280;33253;42.144;25.884;2023-04-27T09:50:30;100327.25;;;13.18;97.46
47524;BME280;33253;42.144;25.884;2023-04-27T09:52:59;100314.88;;;13.06;98.23
47524;BME280;33253;42.144;25.884;2023-04-27T09:55:29;100321.94;;;13.13;100.00
47524;BME280;33253;42.144;25.884;2023-04-27T10:08:53;100326.78;;;13.34;98.59
47524;BME280;33253;42.144;25.884;2023-04-27T10:11:20;100322.69;;;13.42;99.20
47524;BME280;33253;42.144;25.884;2023-04-27T10:13:54;100273.66;;;13.17;100.00
47524;BME280;33253;42.144;25.884;2023-04-27T10:16:20;100327.88;;;13.42;99.62
47524;BME280;33253;42.144;25.884;2023-04-27T10:18:55;100314.44;;;13.61;98.77
47524;BME280;33253;42.144;25.884;2023-04-27T10:21:21;100327.78;;;13.78;99.03
47524;BME280;33253;42.144;25.884;2023-04-27T10:23:51;100309.47;;;13.70;100.00
47524;BME280;33253;42.144;25.884;2023-04-27T10:26:23;100323.41;;;13.75;96.28
47524;BME280;33253;42.144;25.884;2023-04-27T10:28:57;100276.94;;;13.45;97.60
47524;BME280;33253;42.144;25.884;2023-04-27T10:31:26;100323.16;;;13.64;96.93
47524;BME280;33253;42.144;25.884;2023-04-27T10:33:53;100333.22;;;13.50;95.72
47524;BME280;33253;42.144;25.884;2023-04-27T10:36:36;100327.22;;;13.53;98.47
47524;BME280;33253;42.144;25.884;2023-04-27T10:39:13;100296.59;;;13.36;98.15
47524;BME280;33253;42.144;25.884;2023-04-27T10:41:48;100341.69;;;13.81;98.32
47524;BME280;33253;42.144;25.884;2023-04-27T10:44:31;100346.09;;;13.85;96.56
47524;BME280;33253;42.144;25.884;2023-04-27T10:46:59;100307.53;;;13.61;96.53
47524;BME280;33253;42.144;25.884;2023-04-27T10:49:29;100335.88;;;13.93;100.00
47524;BME280;33253;42.144;25.884;2023-04-27T10:51:58;100334.09;;;14.33;95.99
47524;BME280;33253;42.144;25.884;2023-04-27T10:54:27;100297.16;;;14.48;96.07
47524;BME280;33253;42.144;25.884;2023-04-27T10:56:53;100335.44;;;15.08;92.39
47524;BME280;33253;42.144;25.884;2023-04-27T10:59:20;100333.09;;;15.23;93.37
47524;BME280;33253;42.144;25.884;2023-04-27T11:01:48;100326.88;;;15.15;91.40
47524;BME280;33253;42.144;25.884;2023-04-27T11:04:15;100328.47;;;15.05;94.16
47524;BME280;33253;42.144;25.884;2023-04-27T11:06:43;100326.03;;;15.16;91.62
47524;BME280;33253;42.144;25.884;2023-04-27T11:09:10;100341.50;;;15.07;90.68
47524;BME280;33253;42.144;25.884;2023-04-27T11:11:35;100306.19;;;14.67;90.74
47524;BME280;33253;42.144;25.884;2023-04-27T11:14:01;100349.13;;;14.97;94.14
47524;BME280;33253;42.144;25.884;2023-04-27T11:16:28;100346.84;;;15.16;95.02
47524;BME280;33253;42.144;25.884;2023-04-27T11:18:53;100341.91;;;15.33;92.49
47524;BME280;33253;42.144;25.884;2023-04-27T11:21:19;100303.69;;;15.29;91.93
47524;BME280;33253;42.144;25.884;2023-04-27T11:23:46;100310.63;;;15.28;91.58
47524;BME280;33253;42.144;25.884;2023-04-27T11:26:16;100300.41;;;15.39;94.28
47524;BME280;33253;42.144;25.884;2023-04-27T11:28:43;100341.97;;;15.97;91.70
47524;BME280;33253;42.144;25.884;2023-04-27T11:31:09;100343.03;;;16.13;92.48
47524;BME280;33253;42.144;25.884;2023-04-27T11:33:35;100341.53;;;16.32;87.49
47524;BME280;33253;42.144;25.884;2023-04-27T11:36:01;100319.03;;;16.39;89.92
47524;BME280;33253;42.144;25.884;2023-04-27T11:38:36;100350.44;;;16.53;87.93
47524;BME280;33253;42.144;25.884;2023-04-27T11:41:03;100348.66;;;16.50;88.55
47524;BME280;33253;42.144;25.884;2023-04-27T11:43:29;100343.22;;;16.29;88.18
47524;BME280;33253;42.144;25.884;2023-04-27T11:45:55;100301.97;;;15.89;89.74
47524;BME280;33253;42.144;25.884;2023-04-27T11:48:23;100334.34;;;16.11;87.15
47524;BME280;33253;42.144;25.884;2023-04-27T11:50:49;100326.34;;;15.97;88.89
47524;BME280;33253;42.144;25.884;2023-04-27T11:53:15;100327.97;;;15.88;90.13
47524;BME280;33253;42.144;25.884;2023-04-27T11:55:41;100310.25;;;15.63;88.55
47524;BME280;33253;42.144;25.884;2023-04-27T11:58:14;100324.34;;;15.78;88.40
47524;BME280;33253;42.144;25.884;2023-04-27T12:00:40;100325.06;;;15.67;90.16
47524;BME280;33253;42.144;25.884;2023-04-27T12:03:05;100323.28;;;15.63;88.76
47524;BME280;33253;42.144;25.884;2023-04-27T12:05:31;100326.03;;;15.14;88.93
47524;BME280;33253;42.144;25.884;2023-04-27T12:07:57;100326.03;;;15.16;91.71
47524;BME280;33253;42.144;25.884;2023-04-27T12:10:23;100289.53;;;15.10;90.35
47524;BME280;33253;42.144;25.884;2023-04-27T12:12:49;100292.22;;;15.13;94.06
47524;BME280;33253;42.144;25.884;2023-04-27T12:15:14;100312.31;;;15.25;91.80
47524;BME280;33253;42.144;25.884;2023-04-27T12:17:40;100310.44;;;15.16;91.63
47524;BME280;33253;42.144;25.884;2023-04-27T12:20:06;100328.84;;;15.30;90.91
47524;BME280;33253;42.144;25.884;2023-04-27T12:22:32;100313.88;;;15.13;90.79
47524;BME280;33253;42.144;25.884;2023-04-27T12:24:57;100326.13;;;15.20;88.97
47524;BME280;33253;42.144;25.884;2023-04-27T12:27:23;100313.97;;;15.19;88.11
47524;BME280;33253;42.144;25.884;2023-04-27T12:29:48;100322.88;;;15.35;88.67
47524;BME280;33253;42.144;25.884;2023-04-27T12:32:14;100326.59;;;15.53;89.28
47524;BME280;33253;42.144;25.884;2023-04-27T12:34:40;100312.94;;;15.68;88.32
47524;BME280;33253;42.144;25.884;2023-04-27T12:37:07;100313.78;;;15.67;87.61
47524;BME280;33253;42.144;25.884;2023-04-27T12:39:32;100279.94;;;15.65;87.85
47524;BME280;33253;42.144;25.884;2023-04-27T12:41:59;100325.47;;;15.97;87.69
47524;BME280;33253;42.144;25.884;2023-04-27T12:44:26;100318.44;;;15.90;88.55